createdAt,value
2022-10-14T00:01:33.094Z,12.44
2022-10-14T00:04:21.082Z,12.54
2022-10-14T00:07:09.099Z,12.59
2022-10-14T00:09:56.936Z,12.62
2022-10-14T00:12:45.396Z,12.44
2022-10-14T00:15:39.576Z,12.39
2022-10-14T00:18:27.334Z,12.35
2022-10-14T00:21:16.655Z,12.33
2022-10-14T00:24:04.897Z,12.49
2022-10-14T00:26:52.782Z,12.39
2022-10-14T00:29:40.573Z,12.28
2022-10-14T00:32:28.400Z,12.21
2022-10-14T00:35:16.659Z,12.25
2022-10-14T00:38:04.571Z,12.27
2022-10-14T00:40:53.214Z,12.37
2022-10-14T00:44:12.782Z,12.37
2022-10-14T00:47:00.644Z,12.32
2022-10-14T00:49:48.488Z,12.31
2022-10-14T00:52:36.563Z,12.25
2022-10-14T00:55:24.476Z,12.28
2022-10-14T00:58:12.631Z,12.21
2022-10-14T01:01:00.595Z,12.24
2022-10-14T01:03:49.441Z,12.21
2022-10-14T01:07:09.262Z,12.20
2022-10-14T01:10:16.935Z,12.20
2022-10-14T01:13:34.025Z,12.18
2022-10-14T01:17:07.369Z,12.20
2022-10-14T01:20:16.343Z,12.19
2022-10-14T01:23:22.591Z,12.19
2022-10-14T01:27:02.930Z,12.19
2022-10-14T01:30:13.946Z,12.17
2022-10-14T01:33:24.380Z,12.31
2022-10-14T01:36:27.418Z,12.26
2022-10-14T01:39:32.512Z,12.10
2022-10-14T01:42:26.298Z,12.11
2022-10-14T01:45:21.139Z,12.17
2022-10-14T01:48:12.199Z,12.16
2022-10-14T01:51:04.681Z,12.14
2022-10-14T01:54:02.121Z,12.17
2022-10-14T01:56:52.997Z,12.19
2022-10-14T01:59:41.424Z,12.24
2022-10-14T02:02:29.384Z,12.09
2022-10-14T02:05:26.041Z,12.04
2022-10-14T02:08:45.967Z,12.07
2022-10-14T02:12:08.798Z,12.00
2022-10-14T02:15:11.692Z,12.04
2022-10-14T02:18:33.676Z,12.13
2022-10-14T02:21:41.375Z,12.18
2022-10-14T02:24:48.019Z,12.17
2022-10-14T02:27:37.001Z,12.09
2022-10-14T02:30:27.598Z,12.10
2022-10-14T02:33:16.100Z,12.15
2022-10-14T02:36:08.206Z,12.11
2022-10-14T02:39:00.933Z,12.15
2022-10-14T02:41:48.922Z,12.14
2022-10-14T02:44:36.934Z,12.19
2022-10-14T02:47:25.121Z,12.23
2022-10-14T02:50:12.949Z,12.33
2022-10-14T02:53:00.833Z,12.38
2022-10-14T02:55:48.891Z,12.42
2022-10-14T02:58:36.847Z,12.52
2022-10-14T03:01:24.719Z,12.43
2022-10-14T03:04:12.481Z,12.59
2022-10-14T03:07:00.389Z,12.45
2022-10-14T03:09:48.223Z,12.44
2022-10-14T03:12:36.115Z,12.44
2022-10-14T03:15:24.246Z,12.33
2022-10-14T03:18:12.086Z,12.23
2022-10-14T03:20:59.951Z,12.32
2022-10-14T03:23:48.024Z,12.40
2022-10-14T03:26:36.078Z,12.25
2022-10-14T03:29:23.883Z,12.27
2022-10-14T03:32:11.710Z,12.28
2022-10-14T03:34:59.494Z,12.42
2022-10-14T03:37:47.732Z,12.31
2022-10-14T03:40:35.570Z,12.27
2022-10-14T03:43:23.470Z,12.25
2022-10-14T03:46:11.338Z,12.16
2022-10-14T03:48:59.270Z,12.12
2022-10-14T03:51:47.306Z,12.12
2022-10-14T03:54:36.327Z,12.16
2022-10-14T03:57:24.287Z,12.13
2022-10-14T04:00:13.380Z,12.11
2022-10-14T04:03:01.321Z,12.08
2022-10-14T04:05:49.222Z,12.06
2022-10-14T04:08:37.092Z,12.06
2022-10-14T04:11:24.938Z,12.06
2022-10-14T04:14:12.834Z,12.11
2022-10-14T04:17:00.663Z,12.19
2022-10-14T04:19:48.740Z,12.12
2022-10-14T04:22:36.591Z,12.10
2022-10-14T04:25:24.404Z,12.19
2022-10-14T04:28:12.278Z,12.20
2022-10-14T04:31:00.670Z,12.16
2022-10-14T04:33:48.871Z,12.19
2022-10-14T04:36:37.037Z,12.19
2022-10-14T04:39:24.964Z,12.17
2022-10-14T04:42:13.083Z,12.23
2022-10-14T04:45:01.006Z,12.26
2022-10-14T04:47:49.151Z,12.10
2022-10-14T04:50:37.041Z,12.20
2022-10-14T04:53:25.009Z,12.12
2022-10-14T04:56:12.899Z,12.24
2022-10-14T04:59:00.703Z,12.28
2022-10-14T05:01:48.767Z,12.37
2022-10-14T05:04:36.722Z,12.38
2022-10-14T05:07:24.661Z,12.42
2022-10-14T05:10:12.489Z,12.37
2022-10-14T05:13:00.309Z,12.41
2022-10-14T05:15:48.362Z,12.33
2022-10-14T05:18:36.456Z,12.30
2022-10-14T05:21:24.449Z,12.32
2022-10-14T05:24:12.213Z,12.30
2022-10-14T05:27:00.117Z,12.27
2022-10-14T05:29:48.985Z,12.29
2022-10-14T05:32:39.561Z,12.20
2022-10-14T05:35:53.626Z,12.31
2022-10-14T05:38:35.993Z,12.29
2022-10-14T05:41:24.210Z,12.23
2022-10-14T05:44:12.856Z,12.24
2022-10-14T05:47:00.757Z,12.24
2022-10-14T05:49:48.899Z,12.16
2022-10-14T05:52:37.347Z,12.17
2022-10-14T05:55:25.492Z,12.19
2022-10-14T05:58:13.391Z,12.14
2022-10-14T06:01:07.762Z,12.12
2022-10-14T06:03:55.747Z,12.13
2022-10-14T06:06:43.585Z,12.14
2022-10-14T06:09:32.009Z,12.19
2022-10-14T06:12:22.529Z,12.17
2022-10-14T06:15:11.112Z,12.17
2022-10-14T06:17:59.329Z,12.24
2022-10-14T06:20:54.554Z,12.12
2022-10-14T06:23:42.666Z,12.23
2022-10-14T06:26:30.979Z,12.27
2022-10-14T06:29:19.610Z,12.28
2022-10-14T06:32:10.669Z,12.37
2022-10-14T06:34:59.357Z,12.51
2022-10-14T06:37:48.167Z,12.49
2022-10-14T06:40:38.193Z,12.56
2022-10-14T06:43:26.119Z,12.47
2022-10-14T06:46:14.059Z,12.46
2022-10-14T06:49:04.980Z,12.57
2022-10-14T06:51:52.845Z,12.64
2022-10-14T06:54:43.598Z,12.70
2022-10-14T06:57:35.315Z,12.57
2022-10-14T07:00:23.193Z,12.47
2022-10-14T07:03:11.086Z,12.62
2022-10-14T07:05:59.003Z,12.76
2022-10-14T07:08:46.876Z,12.65
2022-10-14T07:11:35.187Z,12.76
2022-10-14T07:14:23.262Z,12.64
2022-10-14T07:17:11.306Z,12.78
2022-10-14T07:19:59.593Z,12.60
2022-10-14T07:22:47.551Z,12.66
2022-10-14T07:25:35.759Z,12.61
2022-10-14T07:28:24.538Z,12.67
2022-10-14T07:31:13.892Z,12.77
2022-10-14T07:34:05.076Z,12.82
2022-10-14T07:36:53.189Z,12.77
2022-10-14T07:39:41.110Z,12.66
2022-10-14T07:42:28.915Z,12.59
2022-10-14T07:45:18.881Z,12.62
2022-10-14T07:48:09.552Z,12.65
2022-10-14T07:50:57.573Z,12.91
2022-10-14T07:53:45.562Z,12.86
2022-10-14T07:56:34.835Z,12.80
2022-10-14T07:59:22.803Z,12.88
2022-10-14T08:02:12.722Z,12.85
2022-10-14T08:05:25.619Z,12.73
2022-10-14T08:08:11.930Z,12.67
2022-10-14T08:11:13.698Z,12.66
2022-10-14T08:14:02.275Z,12.54
2022-10-14T08:16:50.257Z,12.65
2022-10-14T08:19:41.909Z,12.66
2022-10-14T08:22:29.856Z,12.54
2022-10-14T08:25:18.218Z,12.61
2022-10-14T08:28:06.578Z,12.70
2022-10-14T08:30:54.861Z,12.80
2022-10-14T08:33:43.281Z,12.67
2022-10-14T08:36:31.403Z,12.91
2022-10-14T08:39:20.937Z,12.98
2022-10-14T08:42:38.053Z,12.86
2022-10-14T08:45:40.147Z,12.92
2022-10-14T08:48:29.460Z,13.08
2022-10-14T08:51:20.205Z,13.41
2022-10-14T08:54:15.897Z,13.03
2022-10-14T08:57:05.903Z,13.07
2022-10-14T08:59:54.934Z,12.98
2022-10-14T09:02:51.909Z,13.03
2022-10-14T09:05:40.609Z,12.96
2022-10-14T09:08:42.425Z,12.89
2022-10-14T09:11:39.334Z,12.86
2022-10-14T09:14:47.209Z,12.92
2022-10-14T09:17:52.493Z,12.88
2022-10-14T09:20:42.051Z,13.01
2022-10-14T09:23:34.253Z,13.29
2022-10-14T09:26:34.887Z,13.28
2022-10-14T09:29:34.893Z,13.74
2022-10-14T09:32:38.330Z,13.69
2022-10-14T09:35:43.072Z,13.33
2022-10-14T09:38:38.636Z,13.31
2022-10-14T09:41:31.499Z,13.38
2022-10-14T09:44:26.257Z,13.66
2022-10-14T09:47:25.106Z,13.47
2022-10-14T09:50:33.166Z,13.45
2022-10-14T09:53:28.547Z,13.63
2022-10-14T09:56:34.286Z,13.69
2022-10-14T09:59:25.398Z,13.76
2022-10-14T10:02:35.105Z,13.78
2022-10-14T10:05:32.330Z,14.14
2022-10-14T10:08:20.419Z,14.57
2022-10-14T10:11:14.008Z,14.67
2022-10-14T10:14:22.614Z,14.76
2022-10-14T10:17:10.974Z,14.81
2022-10-14T10:20:28.296Z,15.31
2022-10-14T10:23:25.638Z,14.91
2022-10-14T10:26:28.497Z,15.57
2022-10-14T10:29:34.733Z,15.93
2022-10-14T10:32:54.891Z,14.64
2022-10-14T10:36:23.817Z,14.25
2022-10-14T10:39:39.901Z,14.22
2022-10-14T10:42:39.844Z,14.59
2022-10-14T10:46:13.117Z,14.62
2022-10-14T10:50:00.736Z,14.73
2022-10-14T10:53:23.383Z,14.72
2022-10-14T10:57:01.758Z,14.47
2022-10-14T11:00:18.049Z,14.75
2022-10-14T11:03:28.867Z,14.90
2022-10-14T11:06:57.005Z,14.77
2022-10-14T11:10:34.892Z,15.30
2022-10-14T11:13:39.283Z,14.83
2022-10-14T11:16:43.330Z,15.12
2022-10-14T11:20:14.398Z,15.06
2022-10-14T11:23:23.741Z,14.97
2022-10-14T11:26:28.996Z,14.58
2022-10-14T11:29:30.797Z,14.44
2022-10-14T11:32:59.552Z,14.25
2022-10-14T11:36:33.653Z,14.03
2022-10-14T11:39:42.898Z,13.93
2022-10-14T11:43:19.361Z,14.20
2022-10-14T11:46:21.090Z,14.14
2022-10-14T11:49:45.116Z,13.86
2022-10-14T11:52:47.589Z,13.89
2022-10-14T11:55:44.646Z,13.97
2022-10-14T11:58:42.196Z,13.89
2022-10-14T12:01:35.696Z,13.80
2022-10-14T12:04:34.918Z,13.71
2022-10-14T12:07:39.356Z,13.63
2022-10-14T12:10:42.264Z,13.84
2022-10-14T12:13:51.756Z,13.82
2022-10-14T12:16:48.496Z,13.73
2022-10-14T12:19:42.471Z,13.81
2022-10-14T12:22:52.382Z,13.63
2022-10-14T12:29:47.543Z,13.77
2022-10-14T12:32:38.515Z,13.51
2022-10-14T12:36:02.009Z,13.44
2022-10-14T12:39:18.533Z,13.36
2022-10-14T12:42:25.766Z,13.48
2022-10-14T12:45:49.375Z,13.52
2022-10-14T12:48:52.509Z,13.34
2022-10-14T12:52:10.584Z,13.38
2022-10-14T12:55:05.530Z,13.45
2022-10-14T12:58:50.663Z,13.33
2022-10-14T13:01:54.103Z,13.29
2022-10-14T13:05:34.747Z,13.26
2022-10-14T13:08:24.781Z,13.31
2022-10-14T13:11:30.131Z,13.39
2022-10-14T13:14:41.781Z,13.30
2022-10-14T13:18:01.523Z,13.32
2022-10-14T13:20:53.375Z,13.31
2022-10-14T13:23:47.847Z,13.42
2022-10-14T13:26:48.531Z,13.29
2022-10-14T13:30:18.619Z,13.32
2022-10-14T13:33:48.250Z,13.36
2022-10-14T13:36:57.228Z,13.34
2022-10-14T13:39:45.977Z,13.32
2022-10-14T13:42:37.366Z,13.32
2022-10-14T13:46:10.626Z,13.32
2022-10-14T13:49:08.257Z,13.33
2022-10-14T13:52:19.682Z,13.37
2022-10-14T13:55:25.938Z,13.40
2022-10-14T13:58:17.520Z,13.35
2022-10-14T14:01:12.190Z,13.41
2022-10-14T14:04:00.808Z,13.45
2022-10-14T14:07:03.472Z,13.46
2022-10-14T14:10:08.302Z,13.44
2022-10-14T14:13:10.978Z,13.44
2022-10-14T14:16:02.195Z,13.60
2022-10-14T14:22:29.151Z,13.60
2022-10-14T14:38:38.615Z,13.52
2022-10-14T14:47:39.222Z,13.61
2022-10-14T14:50:33.370Z,13.69
2022-10-14T14:53:24.432Z,13.79
2022-10-14T14:56:24.900Z,13.78
2022-10-14T14:59:38.988Z,13.70
2022-10-14T15:02:33.138Z,13.62
2022-10-14T15:05:29.945Z,13.65
2022-10-14T15:08:24.097Z,13.72
2022-10-14T15:14:00.486Z,13.77
2022-10-14T15:16:54.267Z,13.79
2022-10-14T15:19:42.302Z,13.81
2022-10-14T15:22:32.267Z,13.80
2022-10-14T15:25:29.657Z,13.84
2022-10-14T15:28:33.905Z,13.91
2022-10-14T15:31:21.843Z,13.92
2022-10-14T15:34:23.279Z,13.83
2022-10-14T15:37:16.652Z,13.76
2022-10-14T15:40:11.930Z,13.78
2022-10-14T15:42:59.965Z,13.83
2022-10-14T15:46:23.343Z,13.87
2022-10-14T15:49:28.571Z,13.83
2022-10-14T15:52:19.412Z,13.80
2022-10-14T15:55:22.234Z,13.83
2022-10-14T15:58:10.181Z,13.86
2022-10-14T16:00:58.057Z,13.85
2022-10-14T16:03:49.434Z,13.87
2022-10-14T16:06:44.682Z,14.08
2022-10-14T16:09:35.743Z,14.05
2022-10-14T16:12:25.823Z,14.06
2022-10-14T16:15:27.326Z,14.14
2022-10-14T16:18:15.730Z,14.02
2022-10-14T16:21:03.784Z,14.00
2022-10-14T16:23:52.924Z,14.03
2022-10-14T16:26:44.807Z,14.07
2022-10-14T16:29:35.688Z,14.09
2022-10-14T16:32:23.834Z,14.32
2022-10-14T16:35:14.668Z,14.20
2022-10-14T16:38:02.917Z,14.29
2022-10-14T16:40:59.579Z,14.22
2022-10-14T16:43:47.911Z,14.32
2022-10-14T16:46:54.580Z,14.29
2022-10-14T16:50:04.224Z,14.11
2022-10-14T16:53:11.125Z,14.26
2022-10-14T16:55:59.320Z,14.21
2022-10-14T16:58:47.820Z,14.26
2022-10-14T17:01:36.160Z,14.28
2022-10-14T17:04:24.893Z,14.14
2022-10-14T17:07:14.986Z,14.20
2022-10-14T17:10:03.376Z,14.30
2022-10-14T17:12:51.340Z,14.25
2022-10-14T17:15:39.341Z,14.27
2022-10-14T17:18:30.996Z,14.30
2022-10-14T17:21:22.669Z,14.28
2022-10-14T17:24:11.853Z,14.22
2022-10-14T17:27:09.132Z,14.14
2022-10-14T17:29:57.705Z,14.12
2022-10-14T17:32:46.190Z,14.13
2022-10-14T17:35:37.012Z,14.25
2022-10-14T17:38:29.116Z,14.21
2022-10-14T17:41:21.427Z,14.12
2022-10-14T17:44:09.310Z,14.11
2022-10-14T17:46:57.333Z,14.10
2022-10-14T17:49:45.530Z,14.18
2022-10-14T17:52:36.426Z,14.12
2022-10-14T17:55:26.974Z,14.14
2022-10-14T17:58:15.275Z,14.04
2022-10-14T18:01:11.059Z,14.01
2022-10-14T18:04:00.376Z,14.02
2022-10-14T18:06:51.811Z,14.06
2022-10-14T18:09:39.857Z,14.07
2022-10-14T18:12:34.284Z,14.08
2022-10-14T18:15:34.364Z,14.12
2022-10-14T18:18:23.933Z,14.11
2022-10-14T18:21:15.539Z,14.11
2022-10-14T18:24:05.695Z,14.08
2022-10-14T18:27:01.259Z,14.04
2022-10-14T18:29:49.341Z,14.08
2022-10-14T18:32:37.842Z,14.09
2022-10-14T18:35:26.712Z,14.05
2022-10-14T18:38:22.466Z,14.10
2022-10-14T18:41:14.989Z,14.12
2022-10-14T18:44:06.612Z,14.14
2022-10-14T18:46:55.342Z,14.09
2022-10-14T18:49:43.327Z,14.10
2022-10-14T18:52:32.701Z,14.12
2022-10-14T18:55:21.333Z,14.06
2022-10-14T18:58:09.475Z,14.07
2022-10-14T19:00:57.334Z,14.11
2022-10-14T19:03:45.432Z,14.12
2022-10-14T19:06:34.838Z,14.08
2022-10-14T19:09:29.677Z,14.11
2022-10-14T19:12:36.336Z,14.09
2022-10-14T19:15:29.027Z,14.11
2022-10-14T19:18:17.486Z,14.07
2022-10-14T19:21:19.797Z,13.97
2022-10-14T19:24:09.287Z,14.07
2022-10-14T19:26:57.561Z,14.06
2022-10-14T19:29:45.696Z,14.06
2022-10-14T19:32:35.949Z,14.05
2022-10-14T19:35:24.131Z,14.10
2022-10-14T19:38:12.405Z,14.10
2022-10-14T19:41:11.594Z,14.03
2022-10-14T19:44:12.393Z,14.01
2022-10-14T19:47:03.303Z,13.95
2022-10-14T19:49:51.369Z,13.94
2022-10-14T19:52:39.617Z,13.91
2022-10-14T19:55:29.638Z,13.95
2022-10-14T19:58:20.832Z,13.94
2022-10-14T20:01:14.814Z,13.95
2022-10-14T20:04:05.334Z,13.93
2022-10-14T20:07:01.782Z,13.92
2022-10-14T20:09:49.798Z,13.85
2022-10-14T20:12:51.460Z,13.84
2022-10-14T20:15:39.535Z,13.87
2022-10-14T20:18:30.203Z,13.87
2022-10-14T20:21:18.668Z,13.86
2022-10-14T20:24:08.873Z,13.85
2022-10-14T20:27:07.937Z,13.89
2022-10-14T20:30:02.845Z,13.82
2022-10-14T20:33:08.682Z,13.83
2022-10-14T20:36:14.107Z,13.79
2022-10-14T20:39:02.107Z,13.76
2022-10-14T20:41:54.798Z,13.80
2022-10-14T20:45:09.750Z,13.71
2022-10-14T20:48:03.427Z,13.69
2022-10-14T20:50:51.354Z,13.60
2022-10-14T20:56:29.550Z,13.62
2022-10-14T20:59:17.454Z,13.59
2022-10-14T21:02:15.039Z,13.62
2022-10-14T21:05:03.664Z,13.55
2022-10-14T21:08:00.737Z,13.56
2022-10-14T21:11:00.670Z,13.58
2022-10-14T21:13:52.339Z,13.60
2022-10-14T21:16:42.698Z,13.61
2022-10-14T21:19:31.206Z,13.62
2022-10-14T21:22:20.838Z,13.67
2022-10-14T21:25:09.400Z,13.62
2022-10-14T21:27:57.320Z,13.59
2022-10-14T21:30:45.821Z,13.58
2022-10-14T21:33:34.625Z,13.66
2022-10-14T21:36:22.703Z,13.58
2022-10-14T21:39:14.652Z,13.63
2022-10-14T21:42:02.419Z,13.60
2022-10-14T21:44:50.257Z,13.62
2022-10-14T21:47:38.258Z,13.55
2022-10-14T21:50:31.177Z,13.49
2022-10-14T21:53:19.107Z,13.58
2022-10-14T21:56:07.854Z,13.59
2022-10-14T21:58:56.279Z,13.60
2022-10-14T22:01:44.306Z,13.64
2022-10-14T22:04:34.595Z,13.63
2022-10-14T22:07:28.221Z,13.66
2022-10-14T22:10:34.729Z,13.64
2022-10-14T22:13:22.627Z,13.65
2022-10-14T22:16:10.467Z,13.63
2022-10-14T22:19:00.949Z,13.66
2022-10-14T22:21:48.824Z,13.74
2022-10-14T22:24:36.789Z,13.73
2022-10-14T22:27:24.920Z,13.79
2022-10-14T22:30:13.815Z,14.00
2022-10-14T22:33:01.773Z,13.73
2022-10-14T22:35:51.351Z,13.70
2022-10-14T22:38:42.019Z,13.71
2022-10-14T22:41:34.853Z,13.73
2022-10-14T22:44:23.416Z,13.90
2022-10-14T22:47:11.264Z,13.70
2022-10-14T22:49:59.095Z,13.73
2022-10-14T22:52:47.003Z,13.63
2022-10-14T22:55:34.937Z,13.59
2022-10-14T22:58:22.826Z,13.65
2022-10-14T23:01:14.665Z,13.66
2022-10-14T23:04:02.944Z,13.79
2022-10-14T23:06:51.534Z,13.81
2022-10-14T23:09:39.487Z,13.86
2022-10-14T23:12:27.407Z,13.89
2022-10-14T23:15:15.189Z,13.93
2022-10-14T23:18:03.828Z,13.99
2022-10-14T23:20:51.724Z,13.89
2022-10-14T23:23:40.273Z,13.94
2022-10-14T23:26:31.820Z,14.07
2022-10-14T23:29:19.651Z,13.94
2022-10-14T23:32:07.510Z,13.94
2022-10-14T23:34:55.327Z,13.95
2022-10-14T23:37:43.373Z,14.00
2022-10-14T23:40:31.272Z,14.02
2022-10-14T23:43:19.371Z,14.13
2022-10-14T23:46:07.911Z,13.89
2022-10-14T23:49:06.921Z,13.76
2022-10-14T23:51:55.789Z,13.56
2022-10-14T23:54:43.647Z,13.52
2022-10-14T23:57:31.620Z,13.52
